Time;durP1;ratioP1;P1;durP2;ratioP2;P2;SDS_P1;SDS_P2;PMS_P1;PMS_P2;Temp;Humidity;BMP_temperature;BMP_pressure;BME280_temperature;BME280_humidity;BME280_pressure;Samples;Min_cycle;Max_cycle;Signal;HPM_P1;HPM_P2
2024/01/08 00:01:33;;;;;;;4.78;3.25;;;;;;;2.44;78.18;92256.03;2048144;70;20612;-78
2024/01/08 00:03:58;;;;;;;4.57;3.30;;;;;;;2.47;77.93;92246.53;2048127;70;20649;-78
2024/01/08 00:06:24;;;;;;;4.70;3.38;;;;;;;2.46;78.22;92261.00;2048201;70;20150;-77
2024/01/08 00:08:50;;;;;;;4.68;3.40;;;;;;;2.45;77.86;92256.78;2048131;70;20172;-79
2024/01/08 00:11:16;;;;;;;4.88;3.60;;;;;;;2.42;78.03;92255.13;2048045;70;20585;-77
2024/01/08 00:13:41;;;;;;;4.60;3.50;;;;;;;2.45;78.09;92262.31;2046894;70;20154;-77
2024/01/08 00:16:07;;;;;;;6.72;3.60;;;;;;;2.47;78.21;92260.44;2044800;70;20143;-77
2024/01/08 00:18:33;;;;;;;5.00;3.65;;;;;;;2.47;77.82;92263.22;2044785;70;20139;-76
2024/01/08 00:20:59;;;;;;;5.15;3.63;;;;;;;2.47;78.18;92257.66;2044648;70;20151;-78
2024/01/08 00:23:26;;;;;;;10.27;5.43;;;;;;;2.43;77.78;92256.59;2044553;70;20506;-78
2024/01/08 00:25:51;;;;;;;13.18;6.38;;;;;;;2.28;78.17;92263.75;2045138;70;20206;-78
2024/01/08 00:28:17;;;;;;;9.10;4.95;;;;;;;2.36;78.38;92258.13;2048013;70;20222;-77
2024/01/08 00:30:42;;;;;;;7.50;4.28;;;;;;;2.49;77.74;92263.41;2047898;70;20142;-77
2024/01/08 00:33:09;;;;;;;5.35;3.97;;;;;;;2.48;77.80;92264.72;2045574;70;20249;-78
2024/01/08 00:35:35;;;;;;;4.90;3.95;;;;;;;2.43;77.80;92259.34;2048042;70;20214;-78
2024/01/08 00:38:00;;;;;;;4.85;3.75;;;;;;;2.31;77.67;92258.38;2047804;70;20586;-77
2024/01/08 00:40:26;;;;;;;5.55;3.92;;;;;;;2.30;77.68;92260.41;2047836;70;20142;-77
2024/01/08 00:42:52;;;;;;;5.22;3.97;;;;;;;2.27;78.17;92261.53;2047873;70;20159;-76
2024/01/08 00:45:18;;;;;;;5.07;3.90;;;;;;;2.03;78.66;92263.03;2047826;70;20182;-77
2024/01/08 00:47:43;;;;;;;5.85;3.90;;;;;;;2.13;78.48;92261.09;2047986;70;20211;-78
2024/01/08 00:50:10;;;;;;;4.85;3.97;;;;;;;2.16;78.34;92267.56;2047807;70;20614;-78
2024/01/08 00:52:36;;;;;;;4.88;4.00;;;;;;;2.28;77.90;92266.53;2047424;70;20245;-78
2024/01/08 00:55:05;;;;;;;5.95;4.03;;;;;;;2.36;78.04;92265.72;2044757;70;20143;-78
2024/01/08 00:57:33;;;;;;;6.60;4.13;;;;;;;2.35;77.59;92256.66;2044044;70;20218;-78
2024/01/08 00:59:59;;;;;;;5.55;3.72;;;;;;;2.36;77.23;92263.69;2046781;70;20146;-78
2024/01/08 01:02:25;;;;;;;5.38;3.72;;;;;;;2.35;77.08;92261.50;2044452;70;20266;-78
2024/01/08 01:04:50;;;;;;;6.20;3.92;;;;;;;2.35;77.34;92265.00;2044565;70;20801;-78
2024/01/08 01:07:16;;;;;;;6.13;3.88;;;;;;;2.37;77.45;92265.16;2044364;70;20626;-78
2024/01/08 01:09:42;;;;;;;4.88;3.67;;;;;;;2.36;77.65;92268.50;2044545;70;20127;-78
2024/01/08 01:12:09;;;;;;;4.28;3.42;;;;;;;2.34;77.30;92268.31;2044504;70;20190;-78
2024/01/08 01:14:34;;;;;;;5.93;3.90;;;;;;;2.32;77.41;92265.41;2044671;70;20598;-76
2024/01/08 01:17:00;;;;;;;6.47;3.75;;;;;;;2.28;77.95;92280.41;2044557;70;20170;-77
2024/01/08 01:19:26;;;;;;;6.30;4.00;;;;;;;2.34;77.59;92271.88;2044684;70;20154;-78
2024/01/08 01:21:51;;;;;;;4.88;3.70;;;;;;;2.38;77.62;92280.50;2044447;70;20165;-79
2024/01/08 01:24:17;;;;;;;6.70;4.10;;;;;;;2.37;77.44;92275.53;2045106;70;20147;-79
2024/01/08 01:26:43;;;;;;;5.97;4.18;;;;;;;2.24;77.44;92280.06;2044511;70;20194;-80
2024/01/08 01:29:08;;;;;;;7.45;4.00;;;;;;;2.32;77.25;92284.84;2045108;70;20139;-77
2024/01/08 01:31:34;;;;;;;5.80;3.50;;;;;;;1.43;78.47;92285.03;2045063;70;20495;-79
2024/01/08 01:34:00;;;;;;;5.55;3.60;;;;;;;1.89;78.53;92281.25;2045068;70;20187;-79
2024/01/08 01:36:26;;;;;;;5.25;3.92;;;;;;;2.11;78.05;92282.38;2042786;70;20237;-79
2024/01/08 01:38:52;;;;;;;4.68;3.67;;;;;;;2.19;77.19;92291.41;2044986;70;20151;-78
2024/01/08 01:41:17;;;;;;;5.07;3.72;;;;;;;2.09;77.52;92285.75;2045035;70;20230;-79
2024/01/08 01:43:43;;;;;;;4.47;3.45;;;;;;;2.06;77.21;92288.91;2045096;70;20137;-77
2024/01/08 01:46:22;;;;;;;4.70;3.35;;;;;;;2.13;77.07;92291.63;2044890;70;20337;-78
2024/01/08 01:48:48;;;;;;;5.05;3.47;;;;;;;2.19;76.78;92289.38;2048401;70;20146;-76
2024/01/08 01:51:14;;;;;;;4.65;3.60;;;;;;;2.21;76.74;92297.88;2048337;70;20178;-76
2024/01/08 01:53:40;;;;;;;4.88;3.70;;;;;;;2.19;76.55;92291.41;2048279;70;20641;-79
2024/01/08 01:56:06;;;;;;;4.78;3.40;;;;;;;2.20;77.01;92290.84;2048294;70;20147;-78
2024/01/08 01:58:33;;;;;;;4.65;3.60;;;;;;;2.23;76.97;92300.09;2048152;70;20178;-76
2024/01/08 02:00:59;;;;;;;5.82;3.55;;;;;;;2.22;76.35;92301.41;2048282;70;20150;-78
2024/01/08 02:03:25;;;;;;;4.85;3.65;;;;;;;2.22;76.35;92302.13;2048247;70;20155;-77
2024/01/08 02:05:51;;;;;;;4.88;3.40;;;;;;;2.22;76.12;92299.34;2048260;70;20186;-76
2024/01/08 02:08:17;;;;;;;5.20;3.53;;;;;;;2.22;76.37;92296.56;2048158;70;20225;-77
2024/01/08 02:10:43;;;;;;;5.97;3.95;;;;;;;2.24;76.15;92304.34;2048271;70;20138;-78
2024/01/08 02:13:08;;;;;;;4.50;3.80;;;;;;;2.03;76.53;92299.84;2047833;70;20223;-78
2024/01/08 02:15:34;;;;;;;4.38;3.65;;;;;;;2.07;76.77;92299.47;2048286;70;20206;-76
2024/01/08 02:17:59;;;;;;;4.57;3.60;;;;;;;2.05;77.05;92302.06;2048200;70;20501;-78
2024/01/08 02:20:25;;;;;;;5.28;4.03;;;;;;;2.01;76.66;92296.16;2048246;70;20154;-76
2024/01/08 02:22:51;;;;;;;7.72;3.80;;;;;;;0.99;78.13;92290.16;2048146;70;20736;-77
2024/01/08 02:25:16;;;;;;;4.97;3.70;;;;;;;1.06;79.53;92297.72;2048206;70;20154;-77
2024/01/08 02:27:42;;;;;;;7.07;4.00;;;;;;;1.64;78.77;92292.31;2048257;70;20498;-78
2024/01/08 02:30:08;;;;;;;4.75;3.60;;;;;;;1.62;77.97;92303.97;2047708;70;20230;-76
2024/01/08 02:32:34;;;;;;;4.90;3.42;;;;;;;1.70;77.64;92299.13;2048202;70;20173;-76
2024/01/08 02:35:00;;;;;;;6.00;4.03;;;;;;;1.87;77.47;92297.72;2048204;70;20178;-77
2024/01/08 02:37:26;;;;;;;4.90;3.75;;;;;;;1.94;77.34;92299.72;2048039;70;20209;-76
2024/01/08 02:39:51;;;;;;;4.88;3.65;;;;;;;1.82;77.19;92295.91;2048137;70;20142;-76
2024/01/08 02:42:18;;;;;;;5.70;3.88;;;;;;;1.20;77.48;92296.22;2045803;70;20213;-77
2024/01/08 02:44:44;;;;;;;5.47;3.95;;;;;;;1.49;77.93;92288.31;2050352;70;20178;-77
2024/01/08 02:47:10;;;;;;;5.20;4.25;;;;;;;1.60;78.04;92297.50;2048103;70;20166;-77
2024/01/08 02:49:35;;;;;;;6.38;3.80;;;;;;;1.65;77.13;92302.84;2048112;70;20170;-76
2024/01/08 02:52:01;;;;;;;6.18;3.70;;;;;;;1.18;77.89;92304.34;2048216;70;20639;-76
2024/01/08 02:54:27;;;;;;;5.22;3.70;;;;;;;1.20;77.86;92303.78;2048121;70;20145;-75
2024/01/08 02:56:52;;;;;;;4.72;3.60;;;;;;;1.54;77.99;92308.81;2047995;70;20883;-76
2024/01/08 02:59:18;;;;;;;5.10;3.70;;;;;;;1.75;77.29;92303.00;2048243;70;20154;-79
2024/01/08 03:01:44;;;;;;;7.68;4.07;;;;;;;1.21;78.19;92302.47;2048124;70;20198;-77
2024/01/08 03:04:09;;;;;;;6.00;4.30;;;;;;;0.77;78.35;92297.97;2048154;70;20162;-78
2024/01/08 03:06:35;;;;;;;5.50;4.15;;;;;;;0.71;79.20;92310.56;2047988;70;20143;-76
2024/01/08 03:09:01;;;;;;;5.70;4.20;;;;;;;1.02;78.34;92305.69;2048177;70;20177;-76
2024/01/08 03:11:28;;;;;;;6.35;4.07;;;;;;;1.45;77.90;92312.19;2048158;70;20139;-76
2024/01/08 03:13:53;;;;;;;5.35;4.10;;;;;;;1.38;77.47;92313.69;2050264;70;20298;-76
2024/01/08 03:16:19;;;;;;;5.47;4.03;;;;;;;1.43;76.89;92323.13;2045423;70;20154;-77
2024/01/08 03:18:46;;;;;;;5.25;3.83;;;;;;;1.32;77.30;92317.97;2044934;70;20185;-77
2024/01/08 03:21:12;;;;;;;5.40;4.05;;;;;;;1.34;77.03;92318.16;2044346;70;20171;-77
2024/01/08 03:23:38;;;;;;;6.75;4.30;;;;;;;1.12;76.75;92320.44;2044754;70;20590;-77
2024/01/08 03:26:06;;;;;;;6.25;4.18;;;;;;;1.47;76.56;92326.97;2044767;70;20179;-78
2024/01/08 03:28:33;;;;;;;5.15;3.60;;;;;;;1.41;76.20;92325.69;2047059;70;20180;-78
2024/01/08 03:31:00;;;;;;;5.25;3.92;;;;;;;1.46;75.87;92325.47;2050707;70;20185;-79
2024/01/08 03:33:26;;;;;;;5.97;4.18;;;;;;;1.50;76.39;92328.63;2051343;70;20197;-78
2024/01/08 03:35:51;;;;;;;5.30;4.00;;;;;;;1.59;76.15;92321.75;2051278;70;20162;-78
2024/01/08 03:38:17;;;;;;;4.95;3.70;;;;;;;1.57;76.44;92329.91;2050934;70;20135;-79
2024/01/08 03:40:43;;;;;;;5.70;4.20;;;;;;;1.64;75.84;92331.88;2051387;70;20150;-78
2024/01/08 03:43:08;;;;;;;5.88;4.07;;;;;;;1.54;75.89;92333.78;2050743;70;20167;-78
2024/01/08 03:45:34;;;;;;;5.35;3.97;;;;;;;1.24;75.59;92335.38;2050886;70;20170;-77
2024/01/08 03:47:59;;;;;;;5.55;3.90;;;;;;;1.47;75.78;92337.34;2049514;70;20138;-76
2024/01/08 03:50:25;;;;;;;4.95;3.80;;;;;;;1.60;75.36;92339.84;2050667;70;20213;-78
2024/01/08 03:52:51;;;;;;;5.28;3.80;;;;;;;1.67;75.27;92336.31;2051320;70;20280;-78
2024/01/08 03:55:16;;;;;;;8.10;4.25;;;;;;;1.63;75.26;92338.75;2051353;70;20150;-76
2024/01/08 03:57:42;;;;;;;5.80;4.00;;;;;;;1.53;75.36;92340.63;2051266;70;20209;-77
2024/01/08 04:00:09;;;;;;;7.90;4.30;;;;;;;1.58;74.95;92339.69;2051365;70;20143;-75
2024/01/08 04:02:40;;;;;;;6.05;4.28;;;;;;;1.66;75.17;92342.44;2050835;70;20240;-76
2024/01/08 04:05:08;;;;;;;6.43;3.88;;;;;;;1.43;75.25;92337.00;2051190;70;20173;-78
2024/01/08 04:07:34;;;;;;;6.53;4.50;;;;;;;0.84;76.13;92338.06;2048481;70;20171;-78
2024/01/08 04:09:59;;;;;;;8.13;4.40;;;;;;;1.30;75.74;92340.72;2044761;70;20613;-77
2024/01/08 04:12:25;;;;;;;7.30;4.90;;;;;;;1.19;75.06;92333.56;2044604;70;20521;-77
2024/01/08 04:14:51;;;;;;;8.93;5.00;;;;;;;0.92;75.26;92336.03;2044774;70;20155;-76
2024/01/08 04:17:16;;;;;;;7.20;4.90;;;;;;;0.49;76.36;92334.22;2047742;70;20521;-76
2024/01/08 04:19:42;;;;;;;6.82;4.90;;;;;;;0.80;77.01;92336.97;2048062;70;20143;-76
2024/01/08 04:22:07;;;;;;;8.25;4.72;;;;;;;0.74;76.37;92339.94;2047964;70;20237;-77
2024/01/08 04:24:33;;;;;;;8.35;5.20;;;;;;;0.61;77.38;92343.63;2047974;70;20150;-77
2024/01/08 04:26:58;;;;;;;8.60;5.30;;;;;;;0.72;77.17;92348.03;2047945;70;20158;-76
2024/01/08 04:29:24;;;;;;;7.53;5.25;;;;;;;1.07;76.19;92343.56;2047756;70;20174;-79
2024/01/08 04:31:49;;;;;;;7.00;4.85;;;;;;;0.95;75.89;92342.47;2047742;70;20158;-78
2024/01/08 04:34:15;;;;;;;7.22;4.82;;;;;;;0.75;76.51;92355.25;2047834;70;20618;-79
2024/01/08 04:36:44;;;;;;;7.97;4.70;;;;;;;0.95;76.58;92337.66;2047868;70;20564;-77
2024/01/08 04:39:10;;;;;;;7.53;5.40;;;;;;;1.28;75.84;92354.41;2047917;70;20194;-77
2024/01/08 04:41:36;;;;;;;7.15;4.82;;;;;;;1.23;75.41;92361.63;2047942;70;20257;-77
2024/01/08 04:44:01;;;;;;;8.00;5.20;;;;;;;0.88;75.49;92359.88;2047847;70;20174;-78
2024/01/08 04:46:27;;;;;;;7.53;5.40;;;;;;;1.02;75.92;92358.34;2047846;70;20147;-77
2024/01/08 04:48:53;;;;;;;7.00;4.68;;;;;;;1.27;75.37;92359.22;2047998;70;20158;-77
2024/01/08 04:51:23;;;;;;;12.02;6.38;;;;;;;1.25;75.03;92369.41;2045179;70;20210;-76
2024/01/08 04:53:49;;;;;;;8.68;4.88;;;;;;;1.09;75.23;92368.69;2047594;70;20142;-76
2024/01/08 04:56:23;;;;;;;7.10;4.95;;;;;;;0.97;75.95;92373.16;2047881;70;20142;-77
2024/01/08 04:58:50;;;;;;;7.53;4.82;;;;;;;1.04;75.47;92377.19;2048037;70;20147;-77
2024/01/08 05:01:15;;;;;;;9.20;5.50;;;;;;;0.93;74.96;92375.56;2047881;70;20214;-78
2024/01/08 05:03:43;;;;;;;12.13;6.68;;;;;;;0.32;76.46;92378.31;2048392;70;20186;-79
2024/01/08 05:06:13;;;;;;;13.45;7.00;;;;;;;0.83;76.36;92385.72;2048391;70;20166;-78
2024/01/08 05:08:39;;;;;;;9.98;6.28;;;;;;;0.76;76.50;92378.88;2048211;70;20151;-78
2024/01/08 05:11:06;;;;;;;9.70;5.75;;;;;;;0.60;76.49;92382.97;2048243;70;20167;-79
2024/01/08 05:13:32;;;;;;;8.65;5.60;;;;;;;0.76;75.81;92382.41;2046813;70;20202;-76
2024/01/08 05:15:58;;;;;;;8.32;5.30;;;;;;;0.50;76.18;92380.75;2045088;70;20147;-77
2024/01/08 05:18:23;;;;;;;9.07;5.68;;;;;;;0.62;76.88;92383.16;2045039;70;20151;-78
2024/01/08 05:20:49;;;;;;;9.52;5.93;;;;;;;0.71;76.59;92377.78;2045259;70;20147;-77
2024/01/08 05:23:15;;;;;;;9.20;6.03;;;;;;;0.74;75.66;92389.81;2048230;70;20619;-78
2024/01/08 05:25:41;;;;;;;8.77;5.35;;;;;;;0.71;76.08;92393.69;2048209;70;20182;-78
2024/01/08 05:28:07;;;;;;;10.68;5.82;;;;;;;0.82;75.57;92389.78;2048357;70;20154;-76
2024/01/08 05:30:33;;;;;;;8.02;5.40;;;;;;;0.60;76.53;92388.50;2048311;70;20503;-78
2024/01/08 05:32:59;;;;;;;10.27;5.68;;;;;;;0.61;76.39;92389.97;2048270;70;20153;-77
2024/01/08 05:35:24;;;;;;;8.73;5.40;;;;;;;0.77;76.14;92388.69;2046389;70;20151;-79
2024/01/08 05:37:50;;;;;;;9.68;5.85;;;;;;;0.52;75.94;92398.84;2044410;70;20135;-80
2024/01/08 05:40:15;;;;;;;8.32;5.55;;;;;;;0.73;75.79;92389.06;2045020;70;20591;-80
2024/01/08 05:42:41;;;;;;;8.85;5.70;;;;;;;0.77;75.93;92399.75;2045023;70;20159;-79
2024/01/08 05:45:07;;;;;;;9.88;5.72;;;;;;;0.60;75.79;92396.81;2045143;70;20530;-79
2024/01/08 05:47:36;;;;;;;10.27;5.88;;;;;;;0.50;76.33;92394.59;2044419;70;20151;-78
2024/01/08 05:50:04;;;;;;;8.90;5.80;;;;;;;0.64;76.02;92402.72;2045016;70;20170;-80
2024/01/08 05:52:30;;;;;;;9.40;5.90;;;;;;;0.34;76.11;92406.94;2042554;70;20234;-80
2024/01/08 05:54:56;;;;;;;9.35;6.00;;;;;;;0.10;77.84;92413.72;2044878;70;20177;-79
2024/01/08 05:57:22;;;;;;;11.23;6.13;;;;;;;0.43;76.67;92414.72;2044912;70;20602;-79
2024/01/08 05:59:48;;;;;;;10.90;6.38;;;;;;;0.31;77.11;92421.16;2045021;70;20599;-77
2024/01/08 06:02:14;;;;;;;10.07;6.20;;;;;;;0.24;77.17;92417.09;2045875;70;20593;-78
2024/01/08 06:04:42;;;;;;;11.95;6.32;;;;;;;0.57;76.94;92418.06;2047044;70;20190;-77
2024/01/08 06:07:08;;;;;;;10.85;6.25;;;;;;;0.45;76.83;92425.97;2046213;70;20166;-76
2024/01/08 06:09:35;;;;;;;10.63;6.47;;;;;;;0.03;76.92;92424.78;2046208;70;20146;-76
2024/01/08 06:12:04;;;;;;;10.70;6.13;;;;;;;0.34;77.26;92415.25;2046249;70;20294;-78
2024/01/08 06:14:29;;;;;;;11.40;6.97;;;;;;;0.52;76.37;92424.50;2046408;70;20233;-77
2024/01/08 06:16:55;;;;;;;9.23;6.13;;;;;;;0.23;75.58;92419.13;2046281;70;20151;-76
2024/01/08 06:19:21;;;;;;;10.52;6.47;;;;;;;0.07;77.05;92427.94;2046533;70;20255;-77
2024/01/08 06:21:47;;;;;;;10.65;6.68;;;;;;;0.03;76.34;92422.75;2046046;70;20151;-75
2024/01/08 06:24:12;;;;;;;10.85;6.40;;;;;;;-0.25;76.92;92423.59;2046608;70;20179;-78
2024/01/08 06:26:38;;;;;;;11.80;6.70;;;;;;;-0.05;77.19;92439.31;2046344;70;20150;-76
2024/01/08 06:29:03;;;;;;;10.80;6.97;;;;;;;0.14;76.54;92435.53;2045562;70;20193;-76
2024/01/08 06:31:29;;;;;;;10.27;6.57;;;;;;;0.23;75.85;92441.28;2046270;70;20154;-76
2024/01/08 06:33:55;;;;;;;12.93;7.05;;;;;;;-0.07;76.09;92436.38;2046256;70;20167;-79
2024/01/08 06:36:20;;;;;;;11.25;6.78;;;;;;;0.19;75.77;92442.91;2045700;70;20185;-76
2024/01/08 06:38:46;;;;;;;12.00;7.05;;;;;;;0.20;75.55;92447.16;2044825;70;20607;-76
2024/01/08 06:41:11;;;;;;;13.95;7.47;;;;;;;0.35;75.52;92443.69;2044715;70;20234;-76
2024/01/08 06:43:38;;;;;;;11.43;7.15;;;;;;;0.09;75.61;92448.25;2044624;70;20158;-77
2024/01/08 06:46:07;;;;;;;12.25;7.50;;;;;;;-0.15;76.33;92451.47;2044727;70;20595;-77
2024/01/08 06:48:33;;;;;;;12.98;7.60;;;;;;;-0.05;76.72;92460.72;2044804;70;20183;-77
2024/01/08 06:51:01;;;;;;;13.80;7.72;;;;;;;-0.22;76.71;92460.50;2044776;70;20162;-75
2024/01/08 06:53:27;;;;;;;15.02;8.90;;;;;;;-0.17;76.35;92454.78;2042427;70;20143;-76
2024/01/08 06:55:53;;;;;;;14.63;7.93;;;;;;;0.03;76.35;92464.25;2047575;70;20538;-77
2024/01/08 06:58:19;;;;;;;13.05;7.43;;;;;;;0.18;75.57;92466.34;2047770;70;20610;-76
2024/01/08 07:00:45;;;;;;;13.68;7.45;;;;;;;0.27;75.69;92467.84;2048239;70;20202;-76
2024/01/08 07:03:10;;;;;;;13.13;7.90;;;;;;;0.20;75.54;92472.06;2045864;70;20585;-76
2024/01/08 07:05:37;;;;;;;14.25;8.07;;;;;;;0.26;75.28;92472.63;2045054;70;20221;-77
2024/01/08 07:08:07;;;;;;;16.08;8.18;;;;;;;0.03;75.52;92477.38;2044458;70;20142;-77
2024/01/08 07:10:34;;;;;;;15.55;9.15;;;;;;;-0.30;75.91;92472.25;2046604;70;20603;-76
2024/01/08 07:13:01;;;;;;;16.52;8.65;;;;;;;-0.05;76.23;92485.63;2046473;70;20590;-76
2024/01/08 07:15:41;;;;;;;15.57;8.88;;;;;;;-0.11;75.48;92485.78;2048527;70;20155;-75
2024/01/08 07:18:10;;;;;;;15.95;8.45;;;;;;;-0.07;75.07;92488.94;2046445;70;20150;-76
2024/01/08 07:20:40;;;;;;;14.15;8.15;;;;;;;-0.32;74.79;92482.38;2046265;70;20150;-76
2024/01/08 07:23:11;;;;;;;18.08;9.48;;;;;;;-0.38;76.04;92495.63;2045987;70;20139;-77
2024/01/08 07:25:40;;;;;;;13.45;8.38;;;;;;;-0.49;76.42;92488.38;2045284;70;20155;-76
2024/01/08 07:28:07;;;;;;;19.45;9.82;;;;;;;0.00;75.95;92506.91;2044787;70;20147;-75
2024/01/08 07:30:33;;;;;;;15.60;8.95;;;;;;;-0.13;75.55;92504.97;2044792;70;20209;-75
2024/01/08 07:32:59;;;;;;;15.77;9.13;;;;;;;-0.08;75.39;92506.13;2044758;70;20131;-76
2024/01/08 07:35:25;;;;;;;17.33;9.13;;;;;;;0.25;75.13;92509.94;2044758;70;20139;-76
2024/01/08 07:37:55;;;;;;;16.20;8.88;;;;;;;0.38;74.22;92517.34;2044494;70;20660;-74
2024/01/08 07:40:25;;;;;;;16.13;8.80;;;;;;;0.46;74.11;92512.59;2045435;70;20688;-74
2024/01/08 07:42:54;;;;;;;16.95;9.05;;;;;;;0.46;74.10;92523.66;2044672;70;20143;-75
2024/01/08 07:45:22;;;;;;;15.57;8.98;;;;;;;0.52;73.87;92523.50;2044675;70;20214;-74
2024/01/08 07:47:48;;;;;;;17.50;8.90;;;;;;;0.52;73.80;92523.50;2044779;70;20153;-73
2024/01/08 07:50:14;;;;;;;18.83;9.95;;;;;;;0.55;73.45;92522.38;2044784;70;20210;-74
2024/01/08 07:52:40;;;;;;;16.77;9.13;;;;;;;0.01;73.77;92527.75;2042774;70;20147;-74
2024/01/08 07:55:06;;;;;;;19.48;9.27;;;;;;;0.02;74.14;92518.16;2047262;70;20254;-74
2024/01/08 07:57:32;;;;;;;18.23;9.43;;;;;;;0.18;74.99;92530.00;2048086;70;20143;-76
2024/01/08 08:00:00;;;;;;;15.40;9.20;;;;;;;0.47;73.99;92539.72;2046860;70;20151;-75
2024/01/08 08:02:26;;;;;;;18.08;9.45;;;;;;;0.36;73.81;92537.28;2046776;70;20184;-75
2024/01/08 08:04:53;;;;;;;18.27;10.05;;;;;;;0.32;73.80;92542.44;2048022;70;20637;-74
2024/01/08 08:07:19;;;;;;;17.38;9.77;;;;;;;0.12;73.67;92544.00;2048065;70;20146;-74
2024/01/08 08:09:46;;;;;;;19.10;10.63;;;;;;;-0.20;73.40;92549.22;2048035;70;20526;-74
2024/01/08 08:12:12;;;;;;;18.25;10.23;;;;;;;0.20;73.69;92547.56;2048142;70;20173;-75
2024/01/08 08:14:38;;;;;;;16.70;9.88;;;;;;;0.20;73.70;92553.09;2048238;70;20142;-75
2024/01/08 08:17:04;;;;;;;16.90;9.85;;;;;;;0.18;73.75;92557.69;2048051;70;20166;-76
2024/01/08 08:19:30;;;;;;;15.05;9.10;;;;;;;-0.61;73.57;92559.81;2047465;70;20178;-74
2024/01/08 08:21:56;;;;;;;17.75;9.82;;;;;;;-0.39;74.30;92561.28;2047748;70;20643;-75
2024/01/08 08:24:22;;;;;;;16.98;10.07;;;;;;;-0.16;73.98;92561.41;2048264;70;20182;-75
2024/01/08 08:26:48;;;;;;;18.17;10.38;;;;;;;0.04;73.44;92567.41;2048076;70;20596;-74
2024/01/08 08:29:13;;;;;;;18.35;10.55;;;;;;;-0.01;73.38;92572.56;2048324;70;20137;-75
2024/01/08 08:31:39;;;;;;;18.00;10.25;;;;;;;-0.21;73.70;92575.41;2049826;70;20166;-73
2024/01/08 08:34:04;;;;;;;22.55;10.80;;;;;;;-0.12;73.58;92581.19;2048787;70;20151;-75
2024/01/08 08:36:30;;;;;;;19.55;10.55;;;;;;;-0.13;74.00;92579.69;2048151;70;20688;-75
2024/01/08 08:38:56;;;;;;;21.67;10.93;;;;;;;-0.25;73.42;92578.50;2048501;70;20153;-75
2024/01/08 08:41:22;;;;;;;20.17;10.95;;;;;;;0.01;73.16;92591.41;2048515;70;20594;-76
2024/01/08 08:43:48;;;;;;;21.02;10.18;;;;;;;0.16;72.53;92582.44;2048531;70;20284;-77
2024/01/08 08:46:17;;;;;;;18.52;10.60;;;;;;;0.29;72.62;92589.88;2048459;70;20625;-77
2024/01/08 08:48:45;;;;;;;18.05;10.45;;;;;;;-0.49;72.79;92598.25;2048475;70;20150;-76
2024/01/08 08:51:14;;;;;;;20.38;11.23;;;;;;;-0.64;73.79;92601.63;2048439;70;20146;-77
2024/01/08 08:53:39;;;;;;;21.70;11.85;;;;;;;-0.83;74.48;92588.03;2047216;70;20192;-76
2024/01/08 08:56:05;;;;;;;23.85;12.63;;;;;;;-0.39;74.78;92602.03;2047435;70;20160;-76
2024/01/08 08:58:32;;;;;;;22.33;11.85;;;;;;;-0.59;74.93;92600.78;2047453;70;20151;-76
2024/01/08 09:00:57;;;;;;;38.15;16.52;;;;;;;-0.19;73.82;92600.47;2047615;70;20222;-76
2024/01/08 09:03:24;;;;;;;42.08;18.85;;;;;;;-0.19;73.56;92606.03;2047043;70;20186;-77
2024/01/08 09:05:49;;;;;;;21.55;12.23;;;;;;;-0.51;74.59;92604.31;2047629;70;20154;-77
2024/01/08 09:08:16;;;;;;;22.02;12.40;;;;;;;-0.39;73.89;92608.28;2048368;70;20143;-74
2024/01/08 09:10:42;;;;;;;22.90;11.90;;;;;;;-0.32;74.25;92613.16;2048568;70;20177;-76
2024/01/08 09:13:07;;;;;;;20.35;11.30;;;;;;;-0.15;73.76;92612.69;2048532;70;20143;-75
2024/01/08 09:19:21;;;;;;;21.95;10.93;;;;;;;-0.76;74.21;92623.28;2048003;70;20598;-74
2024/01/08 09:21:47;;;;;;;22.33;12.68;;;;;;;-0.44;73.97;92616.75;2048459;70;20155;-75
2024/01/08 09:24:13;;;;;;;23.58;12.52;;;;;;;-0.15;73.28;92626.53;2048463;70;20147;-75
2024/01/08 09:26:39;;;;;;;23.55;12.15;;;;;;;-0.45;73.63;92624.28;2048475;70;20151;-75
2024/01/08 09:29:06;;;;;;;23.73;12.32;;;;;;;-0.30;73.96;92626.44;2048373;70;20135;-74
2024/01/08 09:31:32;;;;;;;24.38;11.98;;;;;;;-0.11;72.46;92620.66;2048363;70;20261;-75
2024/01/08 09:33:57;;;;;;;23.20;11.38;;;;;;;-0.01;72.43;92627.91;2048003;70;20328;-75
2024/01/08 09:36:23;;;;;;;25.55;12.40;;;;;;;-0.02;72.55;92629.19;2047781;70;20665;-75
2024/01/08 09:38:48;;;;;;;22.63;12.43;;;;;;;-0.01;73.30;92636.22;2048353;70;20158;-75
2024/01/08 09:41:14;;;;;;;23.70;13.00;;;;;;;-0.24;73.17;92634.56;2048614;70;20243;-75
2024/01/08 09:43:44;;;;;;;23.55;12.93;;;;;;;-0.52;73.08;92636.03;2048448;70;20162;-75
2024/01/08 09:46:14;;;;;;;26.80;13.82;;;;;;;-0.83;74.20;92641.28;2048284;70;20158;-75
2024/01/08 09:48:40;;;;;;;24.52;12.27;;;;;;;-0.49;73.75;92643.25;2047799;70;20154;-75
2024/01/08 09:51:07;;;;;;;22.13;12.68;;;;;;;-0.55;72.72;92643.41;2047823;70;20518;-75
2024/01/08 09:53:33;;;;;;;25.08;12.70;;;;;;;-0.85;73.87;92640.34;2048274;70;20586;-76
2024/01/08 09:55:59;;;;;;;22.80;12.77;;;;;;;-0.62;73.82;92638.53;2048237;70;20194;-76
2024/01/08 09:58:26;;;;;;;23.40;13.10;;;;;;;-0.48;73.57;92632.94;2048176;70;20522;-75
2024/01/08 10:00:53;;;;;;;23.65;13.00;;;;;;;-0.22;72.39;92643.84;2048276;70;20212;-76
2024/01/08 10:03:19;;;;;;;22.30;12.43;;;;;;;-0.25;73.06;92647.66;2048177;70;20190;-74
2024/01/08 10:05:45;;;;;;;22.05;12.48;;;;;;;-0.01;72.34;92641.00;2048237;70;20149;-74
2024/01/08 10:08:11;;;;;;;22.85;12.52;;;;;;;0.11;71.81;92647.72;2047498;70;20171;-76
2024/01/08 10:10:36;;;;;;;25.90;12.85;;;;;;;0.08;72.31;92639.78;2048004;70;20229;-75
2024/01/08 10:13:02;;;;;;;25.15;13.68;;;;;;;0.27;71.66;92643.00;2047710;70;20206;-74
2024/01/08 10:15:28;;;;;;;24.52;13.25;;;;;;;-0.08;71.82;92639.69;2046101;70;20182;-75
2024/01/08 10:18:01;;;;;;;23.20;13.23;;;;;;;0.29;72.13;92636.94;2046183;70;20163;-74
2024/01/08 10:20:29;;;;;;;21.23;12.50;;;;;;;-0.03;71.54;92627.72;2045079;70;20143;-75
2024/01/08 10:23:09;;;;;;;26.42;13.60;;;;;;;0.20;71.94;92636.16;2044941;70;20167;-75
2024/01/08 10:25:36;;;;;;;22.05;12.73;;;;;;;0.38;71.55;92633.69;2044952;70;20170;-75
2024/01/08 10:28:02;;;;;;;25.00;13.30;;;;;;;0.22;71.24;92630.06;2045068;70;20173;-75
2024/01/08 10:30:28;;;;;;;23.13;13.20;;;;;;;0.49;70.94;92630.56;2046422;70;20238;-77
2024/01/08 10:32:58;;;;;;;25.30;13.30;;;;;;;0.75;71.23;92635.13;2046989;70;20154;-75
2024/01/08 10:35:26;;;;;;;25.92;13.20;;;;;;;0.72;71.02;92628.63;2048297;70;20241;-75
2024/01/08 10:37:52;;;;;;;24.35;13.43;;;;;;;0.77;71.03;92630.50;2048351;70;20147;-74
2024/01/08 10:40:18;;;;;;;25.95;14.02;;;;;;;0.82;71.03;92631.63;2047449;70;20534;-74
2024/01/08 10:42:44;;;;;;;21.98;13.23;;;;;;;0.93;70.59;92633.34;2045035;70;20151;-75
2024/01/08 10:45:10;;;;;;;22.98;12.68;;;;;;;1.01;70.32;92634.84;2045222;70;20618;-75
2024/01/08 10:47:40;;;;;;;22.83;12.98;;;;;;;0.93;70.21;92631.28;2046974;70;20225;-75
2024/01/08 10:50:06;;;;;;;23.00;11.70;;;;;;;1.07;69.94;92626.34;2048049;70;20150;-74
2024/01/08 10:52:44;;;;;;;21.52;11.85;;;;;;;1.21;69.59;92621.38;2048081;70;20166;-76
2024/01/08 10:55:13;;;;;;;20.08;11.60;;;;;;;1.18;69.29;92628.75;2048157;70;20154;-74
2024/01/08 10:57:45;;;;;;;22.40;12.30;;;;;;;1.32;69.17;92620.28;2048013;70;20156;-75
2024/01/08 11:00:12;;;;;;;23.35;12.65;;;;;;;1.36;69.03;92617.88;2048192;70;20684;-75
2024/01/08 11:02:40;;;;;;;21.23;12.57;;;;;;;1.25;67.99;92614.19;2048052;70;20146;-75
2024/01/08 11:05:07;;;;;;;21.63;11.70;;;;;;;0.76;68.69;92619.97;2047889;70;20162;-74
2024/01/08 11:07:40;;;;;;;20.00;11.75;;;;;;;0.61;69.03;92622.69;2048091;70;20150;-74
2024/01/08 11:10:09;;;;;;;20.08;11.27;;;;;;;0.43;68.17;92624.47;2047642;70;20277;-76
2024/01/08 11:12:41;;;;;;;20.90;11.18;;;;;;;0.27;69.33;92626.41;2048018;70;20151;-75
2024/01/08 11:15:07;;;;;;;;;;;;;;;0.35;69.74;92624.41;2048198;70;20178;-78
2024/01/08 11:17:33;;;;;;;24.05;12.45;;;;;;;0.68;69.71;92608.84;2050223;70;20102;-76
2024/01/08 11:19:59;;;;;;;22.00;12.57;;;;;;;-0.03;69.93;92613.16;2047858;70;20146;-75
2024/01/08 11:22:26;;;;;;;25.70;13.25;;;;;;;0.31;70.89;92626.06;2048028;70;20217;-75
2024/01/08 11:25:00;;;;;;;21.10;12.48;;;;;;;0.60;69.79;92605.34;2048011;70;20178;-77
2024/01/08 11:27:26;;;;;;;22.10;12.48;;;;;;;0.53;69.65;92622.66;2047433;70;20590;-76
2024/01/08 11:29:58;;;;;;;23.23;12.52;;;;;;;0.81;69.09;92621.81;2048151;70;20230;-77
2024/01/08 11:33:26;;;;;;;24.88;13.23;;;;;;;0.80;69.32;92620.34;2047951;70;20186;-74
2024/01/08 11:36:00;;;;;;;21.65;11.93;;;;;;;1.23;68.40;92618.78;2036515;70;20140;-76